DLH45D EINN-EDDM
Flight info
| Callsign | DLH45D |
|---|---|
| Flight time | 1h 59m |
| Altitude | 41000 |
| Route | ABAGU3A ABAGU DCT ENJEX DCT AVZAC DCT ICOSA DCT RUHUN DCT UNZIB DCT NUCHU L607 KONAN DCT KOK UL607 MATUG DCT MOVUM T109 HAREM/N0489F350 T104 ELMOX/N0483F270 T104 ROKIL ROKIL1A |
| Aircraft | A359/H-SDE2E3GHIJ3J4J5LM1ORWXY/LB1D1 |
Departure
| Time | 2026-04-30 19:24 |
|---|---|
| Airport | Shannon Airport (EINN) |
Arrival
| Time | 2026-04-30 21:24 |
|---|---|
| Airport | Munich Airport (EDDM) |
| Time | Latitude | Longitude | Altitude | Speed | Heading |
|---|---|---|---|---|---|
| 2026-04-30 18:55 | 52.69918 | -8.90934 | 46 ft | 0 kts | 60° |
| 2026-04-30 19:04 | 52.69997 | -8.91037 | 18 ft | 0 kts | 78° |
| 2026-04-30 19:08 | 52.69996 | -8.91039 | 18 ft | 2 kts | 78° |
| 2026-04-30 19:08 | 52.69996 | -8.91095 | 20 ft | 3 kts | 126° |
| 2026-04-30 19:08 | 52.70009 | -8.91116 | 21 ft | 3 kts | 160° |
| 2026-04-30 19:09 | 52.70020 | -8.91121 | 23 ft | 0 kts | 181° |
| 2026-04-30 19:09 | 52.70019 | -8.91121 | 23 ft | 1 kts | 181° |
| 2026-04-30 19:09 | 52.69954 | -8.91144 | 20 ft | 14 kts | 195° |
| 2026-04-30 19:10 | 52.69732 | -8.91267 | 24 ft | 20 kts | 198° |
| 2026-04-30 19:10 | 52.69713 | -8.91439 | 27 ft | 18 kts | 305° |
| 2026-04-30 19:11 | 52.69792 | -8.91628 | 27 ft | 22 kts | 305° |
| 2026-04-30 19:11 | 52.69745 | -8.91881 | 29 ft | 19 kts | 215° |
| 2026-04-30 19:11 | 52.69625 | -8.92018 | 30 ft | 22 kts | 215° |
| 2026-04-30 19:12 | 52.69508 | -8.92164 | 27 ft | 12 kts | 235° |
| 2026-04-30 19:12 | 52.69517 | -8.92297 | 28 ft | 19 kts | 299° |
| 2026-04-30 19:12 | 52.69638 | -8.92521 | 28 ft | 27 kts | 315° |
| 2026-04-30 19:13 | 52.69773 | -8.92739 | 28 ft | 6 kts | 316° |
| 2026-04-30 19:13 | 52.69785 | -8.92759 | 28 ft | 0 kts | 315° |
| 2026-04-30 19:15 | 52.69791 | -8.92768 | 28 ft | 8 kts | 315° |
| 2026-04-30 19:15 | 52.69859 | -8.92878 | 28 ft | 0 kts | 315° |
| 2026-04-30 19:22 | 52.69759 | -8.93411 | 31 ft | 42 kts | 232° |
| 2026-04-30 19:23 | 52.69315 | -8.94252 | 39 ft | 1 kts | 239° |
| 2026-04-30 19:24 | 52.69350 | -8.94272 | 40 ft | 15 kts | 42° |
| 2026-04-30 19:24 | 52.69613 | -8.93720 | 33 ft | 106 kts | 52° |
| 2026-04-30 19:24 | 52.70904 | -8.90957 | 1199 ft | 166 kts | 56° |
| 2026-04-30 19:25 | 52.70995 | -8.84654 | 3183 ft | 231 kts | 117° |
| 2026-04-30 19:26 | 52.69779 | -8.79431 | 5110 ft | 253 kts | 109° |
| 2026-04-30 19:26 | 52.68765 | -8.73786 | 7445 ft | 258 kts | 110° |
| 2026-04-30 19:26 | 52.68279 | -8.70921 | 8715 ft | 260 kts | 110° |
| 2026-04-30 19:27 | 52.67299 | -8.65060 | 10960 ft | 278 kts | 111° |
| 2026-04-30 19:27 | 52.66185 | -8.58395 | 12248 ft | 324 kts | 109° |
| 2026-04-30 19:28 | 52.65582 | -8.54727 | 13335 ft | 331 kts | 109° |
| 2026-04-30 19:28 | 52.64357 | -8.47284 | 15234 ft | 345 kts | 110° |
| 2026-04-30 19:29 | 52.63101 | -8.39712 | 17229 ft | 355 kts | 110° |
| 2026-04-30 19:29 | 52.62672 | -8.37138 | 17917 ft | 358 kts | 110° |
| 2026-04-30 19:30 | 52.60654 | -8.25074 | 20798 ft | 372 kts | 110° |
| 2026-04-30 19:30 | 52.59256 | -8.16775 | 22736 ft | 380 kts | 110° |
| 2026-04-30 19:31 | 52.57817 | -8.08276 | 24456 ft | 391 kts | 111° |
| 2026-04-30 19:31 | 52.57083 | -8.03951 | 25204 ft | 396 kts | 111° |
| 2026-04-30 19:31 | 52.55576 | -7.95119 | 26513 ft | 411 kts | 111° |
| 2026-04-30 19:32 | 52.54799 | -7.90578 | 27237 ft | 416 kts | 111° |
| 2026-04-30 19:32 | 52.54009 | -7.85972 | 28016 ft | 421 kts | 111° |
| 2026-04-30 19:32 | 52.53210 | -7.81322 | 28734 ft | 426 kts | 111° |
| 2026-04-30 19:32 | 52.52396 | -7.76600 | 29470 ft | 431 kts | 111° |
| 2026-04-30 19:33 | 52.51573 | -7.71844 | 30161 ft | 436 kts | 111° |
| 2026-04-30 19:33 | 52.51021 | -7.68655 | 30516 ft | 440 kts | 111° |
| 2026-04-30 19:33 | 52.49698 | -7.62286 | 31224 ft | 442 kts | 117° |
| 2026-04-30 19:33 | 52.48911 | -7.59180 | 31593 ft | 445 kts | 118° |
| 2026-04-30 19:34 | 52.47671 | -7.54525 | 32121 ft | 448 kts | 118° |
| 2026-04-30 19:34 | 52.46388 | -7.49840 | 32627 ft | 453 kts | 119° |
| 2026-04-30 19:34 | 52.43321 | -7.38739 | 33550 ft | 466 kts | 118° |
| 2026-04-30 19:35 | 52.42436 | -7.35518 | 34029 ft | 464 kts | 118° |
| 2026-04-30 19:35 | 52.41101 | -7.30636 | 34648 ft | 463 kts | 118° |
| 2026-04-30 19:35 | 52.39804 | -7.25893 | 35136 ft | 464 kts | 118° |
| 2026-04-30 19:35 | 52.38480 | -7.21059 | 35632 ft | 464 kts | 118° |
| 2026-04-30 19:36 | 52.37156 | -7.16230 | 36121 ft | 465 kts | 117° |
| 2026-04-30 19:36 | 52.35830 | -7.11406 | 36595 ft | 466 kts | 117° |
| 2026-04-30 19:36 | 52.33161 | -7.01734 | 37526 ft | 466 kts | 117° |
| 2026-04-30 19:37 | 52.31822 | -6.96895 | 37959 ft | 467 kts | 117° |
| 2026-04-30 19:37 | 52.30480 | -6.92059 | 38365 ft | 468 kts | 117° |
| 2026-04-30 19:37 | 52.29128 | -6.87199 | 38692 ft | 470 kts | 117° |
| 2026-04-30 19:37 | 52.27774 | -6.82339 | 39024 ft | 470 kts | 117° |
| 2026-04-30 19:38 | 52.26417 | -6.77479 | 39337 ft | 471 kts | 117° |
| 2026-04-30 19:38 | 52.25053 | -6.72601 | 39633 ft | 472 kts | 117° |
| 2026-04-30 19:38 | 52.23685 | -6.67721 | 39915 ft | 473 kts | 117° |
| 2026-04-30 19:38 | 52.22308 | -6.62821 | 40196 ft | 474 kts | 117° |
| 2026-04-30 19:39 | 52.20934 | -6.57941 | 40466 ft | 475 kts | 117° |
| 2026-04-30 19:39 | 52.19554 | -6.53049 | 40735 ft | 476 kts | 117° |
| 2026-04-30 19:39 | 52.18162 | -6.48125 | 40996 ft | 478 kts | 117° |
| 2026-04-30 19:39 | 52.16768 | -6.43205 | 41074 ft | 479 kts | 117° |
| 2026-04-30 19:40 | 52.13988 | -6.33423 | 41083 ft | 479 kts | 116° |
| 2026-04-30 19:40 | 52.11180 | -6.23581 | 41085 ft | 479 kts | 117° |
| 2026-04-30 19:41 | 52.08368 | -6.13766 | 41082 ft | 479 kts | 117° |
| 2026-04-30 19:41 | 52.05548 | -6.03968 | 41084 ft | 480 kts | 117° |
| 2026-04-30 19:42 | 52.02743 | -5.94087 | 41084 ft | 480 kts | 116° |
| 2026-04-30 19:42 | 51.99998 | -5.84279 | 41080 ft | 480 kts | 116° |
| 2026-04-30 19:43 | 51.97225 | -5.74434 | 41086 ft | 479 kts | 116° |
| 2026-04-30 19:44 | 51.93035 | -5.59693 | 41086 ft | 479 kts | 116° |
| 2026-04-30 19:44 | 51.90248 | -5.49946 | 41086 ft | 479 kts | 116° |
| 2026-04-30 19:45 | 51.87444 | -5.40181 | 41089 ft | 479 kts | 117° |
| 2026-04-30 19:45 | 51.84619 | -5.30385 | 41088 ft | 479 kts | 117° |
| 2026-04-30 19:46 | 51.81790 | -5.20610 | 41094 ft | 479 kts | 117° |
| 2026-04-30 19:46 | 51.78960 | -5.10842 | 41093 ft | 479 kts | 116° |
| 2026-04-30 19:47 | 51.76997 | -5.00538 | 41089 ft | 482 kts | 104° |
| 2026-04-30 19:47 | 51.75684 | -4.89956 | 41091 ft | 483 kts | 102° |
| 2026-04-30 19:48 | 51.74443 | -4.79305 | 41093 ft | 482 kts | 102° |
| 2026-04-30 19:48 | 51.73190 | -4.68700 | 41094 ft | 481 kts | 103° |
| 2026-04-30 19:49 | 51.71909 | -4.58099 | 41099 ft | 481 kts | 103° |
| 2026-04-30 19:49 | 51.69956 | -4.42177 | 41105 ft | 482 kts | 103° |
| 2026-04-30 19:50 | 51.68643 | -4.31571 | 41103 ft | 482 kts | 103° |
| 2026-04-30 19:50 | 51.67333 | -4.21065 | 41111 ft | 480 kts | 103° |
| 2026-04-30 19:51 | 51.66006 | -4.10507 | 41108 ft | 480 kts | 103° |
| 2026-04-30 19:51 | 51.64668 | -3.99944 | 41113 ft | 480 kts | 103° |
| 2026-04-30 19:52 | 51.63321 | -3.89395 | 41113 ft | 480 kts | 103° |
| 2026-04-30 19:52 | 51.61978 | -3.78932 | 41117 ft | 480 kts | 104° |
| 2026-04-30 19:53 | 51.60612 | -3.68398 | 41125 ft | 480 kts | 104° |
| 2026-04-30 19:53 | 51.59488 | -3.59004 | 41129 ft | 481 kts | 98° |
| 2026-04-30 19:54 | 51.59042 | -3.52504 | 41130 ft | 482 kts | 98° |
| 2026-04-30 19:54 | 51.58401 | -3.41784 | 41132 ft | 482 kts | 97° |
| 2026-04-30 19:55 | 51.57992 | -3.34692 | 41124 ft | 482 kts | 97° |
| 2026-04-30 19:55 | 51.57833 | -3.31966 | 41126 ft | 482 kts | 97° |
| 2026-04-30 19:56 | 51.57642 | -3.28695 | 41135 ft | 483 kts | 97° |
| 2026-04-30 19:56 | 51.57213 | -3.21463 | 41132 ft | 484 kts | 97° |
| 2026-04-30 19:57 | 51.56890 | -3.16088 | 41139 ft | 484 kts | 97° |
| 2026-04-30 19:57 | 51.56230 | -3.05335 | 41220 ft | 494 kts | 97° |
| 2026-04-30 19:58 | 51.55879 | -2.99686 | 41232 ft | 498 kts | 97° |
| 2026-04-30 19:58 | 51.55664 | -2.96254 | 41233 ft | 498 kts | 97° |
| 2026-04-30 19:59 | 51.54966 | -2.85174 | 41217 ft | 497 kts | 97° |
| 2026-04-30 20:00 | 51.53903 | -2.68613 | 41131 ft | 496 kts | 98° |
| 2026-04-30 20:00 | 51.53184 | -2.57635 | 41146 ft | 496 kts | 98° |
| 2026-04-30 20:01 | 51.52084 | -2.41124 | 41143 ft | 495 kts | 98° |
| 2026-04-30 20:01 | 51.51338 | -2.30135 | 41150 ft | 494 kts | 98° |
| 2026-04-30 20:02 | 51.50204 | -2.13705 | 41154 ft | 493 kts | 98° |
| 2026-04-30 20:03 | 51.49049 | -1.97302 | 41161 ft | 493 kts | 98° |
| 2026-04-30 20:03 | 51.48267 | -1.86372 | 41159 ft | 493 kts | 98° |
| 2026-04-30 20:04 | 51.47477 | -1.75513 | 41176 ft | 492 kts | 98° |
| 2026-04-30 20:05 | 51.45781 | -1.59312 | 41183 ft | 490 kts | 103° |
| 2026-04-30 20:05 | 51.43590 | -1.43266 | 41164 ft | 491 kts | 104° |
| 2026-04-30 20:06 | 51.42103 | -1.32577 | 41182 ft | 491 kts | 104° |
| 2026-04-30 20:06 | 51.40618 | -1.21957 | 41182 ft | 491 kts | 104° |
| 2026-04-30 20:07 | 51.39473 | -1.11176 | 41184 ft | 492 kts | 97° |
| 2026-04-30 20:08 | 51.38582 | -0.94795 | 41178 ft | 493 kts | 96° |
| 2026-04-30 20:08 | 51.38028 | -0.83848 | 41183 ft | 493 kts | 96° |
| 2026-04-30 20:09 | 51.37455 | -0.72916 | 41185 ft | 493 kts | 96° |
| 2026-04-30 20:09 | 51.36566 | -0.56583 | 41185 ft | 493 kts | 96° |
| 2026-04-30 20:10 | 51.35649 | -0.40194 | 41186 ft | 493 kts | 96° |
| 2026-04-30 20:11 | 51.34709 | -0.23796 | 41189 ft | 493 kts | 96° |
| 2026-04-30 20:11 | 51.34071 | -0.12888 | 41192 ft | 493 kts | 97° |
| 2026-04-30 20:12 | 51.33093 | 0.03508 | 41205 ft | 493 kts | 97° |
| 2026-04-30 20:13 | 51.32236 | 0.14380 | 41179 ft | 493 kts | 100° |
| 2026-04-30 20:13 | 51.31127 | 0.25181 | 41171 ft | 493 kts | 100° |
| 2026-04-30 20:14 | 51.30035 | 0.35943 | 41163 ft | 493 kts | 100° |
| 2026-04-30 20:14 | 51.28976 | 0.46763 | 41161 ft | 493 kts | 100° |
| 2026-04-30 20:15 | 51.27926 | 0.57573 | 41165 ft | 493 kts | 100° |
| 2026-04-30 20:15 | 51.26860 | 0.68443 | 41175 ft | 493 kts | 100° |
| 2026-04-30 20:16 | 51.25787 | 0.79256 | 41187 ft | 493 kts | 100° |
| 2026-04-30 20:16 | 51.24704 | 0.90059 | 41200 ft | 493 kts | 100° |
| 2026-04-30 20:17 | 51.23611 | 1.00854 | 41213 ft | 491 kts | 100° |
| 2026-04-30 20:17 | 51.22699 | 1.09783 | 41213 ft | 490 kts | 100° |
| 2026-04-30 20:18 | 51.21596 | 1.20492 | 41218 ft | 489 kts | 100° |
| 2026-04-30 20:18 | 51.20482 | 1.31199 | 41218 ft | 489 kts | 101° |
| 2026-04-30 20:19 | 51.19359 | 1.41904 | 41216 ft | 489 kts | 100° |
| 2026-04-30 20:19 | 51.18227 | 1.52585 | 41216 ft | 487 kts | 100° |
| 2026-04-30 20:20 | 51.17097 | 1.63166 | 41218 ft | 486 kts | 101° |
| 2026-04-30 20:20 | 51.15951 | 1.73796 | 41223 ft | 487 kts | 101° |
| 2026-04-30 20:21 | 51.14795 | 1.84424 | 41221 ft | 487 kts | 101° |
| 2026-04-30 20:21 | 51.13627 | 1.95061 | 41211 ft | 487 kts | 101° |
| 2026-04-30 20:22 | 51.12778 | 2.05786 | 41213 ft | 488 kts | 96° |
| 2026-04-30 20:22 | 51.12185 | 2.16486 | 41215 ft | 488 kts | 96° |
| 2026-04-30 20:23 | 51.11610 | 2.27275 | 41223 ft | 488 kts | 96° |
| 2026-04-30 20:23 | 51.11023 | 2.38044 | 41215 ft | 488 kts | 95° |
| 2026-04-30 20:24 | 51.10417 | 2.48848 | 41225 ft | 490 kts | 96° |
| 2026-04-30 20:24 | 51.09799 | 2.59644 | 41224 ft | 491 kts | 96° |
| 2026-04-30 20:25 | 51.07739 | 2.75577 | 41232 ft | 490 kts | 103° |
| 2026-04-30 20:26 | 51.05030 | 2.91177 | 41237 ft | 492 kts | 105° |
| 2026-04-30 20:26 | 51.02144 | 3.06862 | 41238 ft | 493 kts | 105° |
| 2026-04-30 20:27 | 50.98268 | 3.27772 | 41243 ft | 493 kts | 105° |
| 2026-04-30 20:28 | 50.94391 | 3.48490 | 41249 ft | 490 kts | 105° |
| 2026-04-30 20:30 | 50.89474 | 3.74372 | 41256 ft | 490 kts | 105° |
| 2026-04-30 20:31 | 50.83484 | 4.05139 | 41275 ft | 487 kts | 105° |
| 2026-04-30 20:32 | 50.78432 | 4.30748 | 41286 ft | 488 kts | 105° |
| 2026-04-30 20:33 | 50.75387 | 4.46025 | 41287 ft | 488 kts | 106° |
| 2026-04-30 20:34 | 50.72319 | 4.61352 | 41287 ft | 488 kts | 108° |
| 2026-04-30 20:35 | 50.69168 | 4.76557 | 41269 ft | 488 kts | 107° |
| 2026-04-30 20:35 | 50.66123 | 4.91875 | 41274 ft | 488 kts | 107° |
| 2026-04-30 20:36 | 50.64080 | 5.02058 | 41273 ft | 487 kts | 107° |
| 2026-04-30 20:37 | 50.60909 | 5.17310 | 41279 ft | 488 kts | 107° |
| 2026-04-30 20:37 | 50.58793 | 5.27472 | 41281 ft | 488 kts | 107° |
| 2026-04-30 20:38 | 50.56680 | 5.37606 | 41284 ft | 488 kts | 107° |
| 2026-04-30 20:38 | 50.54568 | 5.47689 | 41287 ft | 488 kts | 107° |
| 2026-04-30 20:39 | 50.51478 | 5.62931 | 41291 ft | 488 kts | 102° |
| 2026-04-30 20:40 | 50.49374 | 5.78564 | 41290 ft | 487 kts | 100° |
| 2026-04-30 20:40 | 50.48039 | 5.88994 | 41290 ft | 487 kts | 101° |
| 2026-04-30 20:41 | 50.45996 | 6.04601 | 41296 ft | 487 kts | 100° |
| 2026-04-30 20:41 | 50.44616 | 6.15004 | 41291 ft | 487 kts | 101° |
| 2026-04-30 20:42 | 50.43238 | 6.25324 | 41297 ft | 486 kts | 100° |
| 2026-04-30 20:43 | 50.40869 | 6.40806 | 41294 ft | 487 kts | 105° |
| 2026-04-30 20:43 | 50.38819 | 6.50952 | 41299 ft | 488 kts | 106° |
| 2026-04-30 20:44 | 50.35650 | 6.66142 | 41313 ft | 489 kts | 107° |
| 2026-04-30 20:45 | 50.31416 | 6.86338 | 41338 ft | 489 kts | 107° |
| 2026-04-30 20:45 | 50.29286 | 6.96446 | 41343 ft | 489 kts | 107° |
| 2026-04-30 20:46 | 50.25006 | 7.16605 | 41345 ft | 489 kts | 107° |
| 2026-04-30 20:47 | 50.21766 | 7.31734 | 41341 ft | 489 kts | 107° |
| 2026-04-30 20:48 | 50.18510 | 7.46820 | 41345 ft | 489 kts | 107° |
| 2026-04-30 20:48 | 50.16321 | 7.56900 | 41342 ft | 489 kts | 107° |
| 2026-04-30 20:49 | 50.14129 | 7.66948 | 41329 ft | 489 kts | 107° |
| 2026-04-30 20:50 | 50.10838 | 7.81938 | 41344 ft | 489 kts | 106° |
| 2026-04-30 20:50 | 50.08625 | 7.91957 | 41346 ft | 488 kts | 107° |
| 2026-04-30 20:51 | 50.06404 | 8.01969 | 41350 ft | 488 kts | 107° |
| 2026-04-30 20:51 | 50.03061 | 8.16942 | 41355 ft | 488 kts | 107° |
| 2026-04-30 20:52 | 50.00818 | 8.26927 | 41361 ft | 488 kts | 106° |
| 2026-04-30 20:53 | 49.97459 | 8.41797 | 41356 ft | 487 kts | 107° |
| 2026-04-30 20:53 | 49.95120 | 8.51696 | 41345 ft | 489 kts | 111° |
| 2026-04-30 20:54 | 49.90247 | 8.65690 | 41343 ft | 491 kts | 117° |
| 2026-04-30 20:55 | 49.85113 | 8.79464 | 41342 ft | 492 kts | 117° |
| 2026-04-30 20:55 | 49.81705 | 8.88587 | 41350 ft | 491 kts | 117° |
| 2026-04-30 20:56 | 49.76573 | 9.02348 | 41345 ft | 491 kts | 117° |
| 2026-04-30 20:57 | 49.71439 | 9.16026 | 41345 ft | 492 kts | 117° |
| 2026-04-30 20:57 | 49.67990 | 9.25180 | 41342 ft | 492 kts | 117° |
| 2026-04-30 20:58 | 49.62785 | 9.38874 | 41344 ft | 493 kts | 119° |
| 2026-04-30 20:58 | 49.58573 | 9.47232 | 41358 ft | 497 kts | 127° |
| 2026-04-30 20:59 | 49.54018 | 9.55278 | 41204 ft | 498 kts | 128° |
| 2026-04-30 20:59 | 49.51723 | 9.59263 | 40949 ft | 493 kts | 128° |
| 2026-04-30 21:00 | 49.47193 | 9.67110 | 39780 ft | 488 kts | 127° |
| 2026-04-30 21:00 | 49.42721 | 9.74879 | 38275 ft | 483 kts | 127° |
| 2026-04-30 21:01 | 49.38277 | 9.82603 | 36739 ft | 479 kts | 127° |
| 2026-04-30 21:01 | 49.36100 | 9.86388 | 36063 ft | 478 kts | 126° |
| 2026-04-30 21:01 | 49.31654 | 9.94066 | 34506 ft | 480 kts | 127° |
| 2026-04-30 21:02 | 49.29432 | 9.97888 | 33573 ft | 482 kts | 127° |
| 2026-04-30 21:02 | 49.27951 | 10.00432 | 32987 ft | 481 kts | 127° |
| 2026-04-30 21:02 | 49.24999 | 10.05492 | 31823 ft | 481 kts | 127° |
| 2026-04-30 21:02 | 49.22768 | 10.09313 | 30889 ft | 481 kts | 127° |
| 2026-04-30 21:03 | 49.20530 | 10.13140 | 29842 ft | 482 kts | 127° |
| 2026-04-30 21:03 | 49.19050 | 10.15673 | 29098 ft | 482 kts | 127° |
| 2026-04-30 21:03 | 49.16819 | 10.19495 | 28252 ft | 478 kts | 127° |
| 2026-04-30 21:03 | 49.14626 | 10.23229 | 27966 ft | 468 kts | 127° |
| 2026-04-30 21:04 | 49.12449 | 10.26913 | 27530 ft | 464 kts | 127° |
| 2026-04-30 21:04 | 49.10256 | 10.30485 | 26873 ft | 459 kts | 128° |
| 2026-04-30 21:04 | 49.05870 | 10.37445 | 25511 ft | 450 kts | 129° |
| 2026-04-30 21:05 | 49.03706 | 10.40872 | 24808 ft | 446 kts | 129° |
| 2026-04-30 21:05 | 49.01598 | 10.44222 | 24163 ft | 442 kts | 129° |
| 2026-04-30 21:05 | 48.99481 | 10.47601 | 23422 ft | 438 kts | 129° |
| 2026-04-30 21:05 | 48.97380 | 10.50957 | 22729 ft | 433 kts | 129° |
| 2026-04-30 21:06 | 48.95310 | 10.54250 | 22036 ft | 428 kts | 129° |
| 2026-04-30 21:06 | 48.93266 | 10.57507 | 21390 ft | 423 kts | 129° |
| 2026-04-30 21:06 | 48.91245 | 10.60720 | 20740 ft | 420 kts | 129° |
| 2026-04-30 21:06 | 48.89228 | 10.63921 | 20059 ft | 417 kts | 129° |
| 2026-04-30 21:07 | 48.87228 | 10.67092 | 19387 ft | 414 kts | 129° |
| 2026-04-30 21:07 | 48.85288 | 10.70166 | 18723 ft | 412 kts | 129° |
| 2026-04-30 21:07 | 48.83355 | 10.73233 | 18520 ft | 386 kts | 129° |
| 2026-04-30 21:07 | 48.81556 | 10.76067 | 17970 ft | 367 kts | 129° |
| 2026-04-30 21:08 | 48.79766 | 10.78898 | 16882 ft | 377 kts | 129° |
| 2026-04-30 21:08 | 48.77936 | 10.81792 | 16065 ft | 382 kts | 130° |
| 2026-04-30 21:08 | 48.76148 | 10.84617 | 15822 ft | 367 kts | 129° |
| 2026-04-30 21:08 | 48.74385 | 10.87449 | 15268 ft | 368 kts | 130° |
| 2026-04-30 21:09 | 48.72594 | 10.90258 | 14264 ft | 376 kts | 130° |
| 2026-04-30 21:09 | 48.70752 | 10.93114 | 13384 ft | 379 kts | 131° |
| 2026-04-30 21:09 | 48.68911 | 10.95958 | 12671 ft | 376 kts | 131° |
| 2026-04-30 21:09 | 48.67097 | 10.98765 | 12134 ft | 368 kts | 131° |
| 2026-04-30 21:10 | 48.65354 | 11.01451 | 12002 ft | 348 kts | 131° |
| 2026-04-30 21:10 | 48.63703 | 11.03992 | 11851 ft | 329 kts | 131° |
| 2026-04-30 21:10 | 48.62142 | 11.06398 | 11737 ft | 312 kts | 131° |
| 2026-04-30 21:10 | 48.60661 | 11.08686 | 11603 ft | 297 kts | 130° |
| 2026-04-30 21:11 | 48.59270 | 11.10840 | 11468 ft | 283 kts | 130° |
| 2026-04-30 21:11 | 48.57842 | 11.12813 | 11336 ft | 275 kts | 139° |
| 2026-04-30 21:11 | 48.56313 | 11.14486 | 11208 ft | 267 kts | 141° |
| 2026-04-30 21:11 | 48.54796 | 11.16078 | 11028 ft | 266 kts | 141° |
| 2026-04-30 21:12 | 48.53331 | 11.17769 | 10714 ft | 263 kts | 132° |
| 2026-04-30 21:12 | 48.52284 | 11.19953 | 10397 ft | 255 kts | 111° |
| 2026-04-30 21:12 | 48.51882 | 11.22545 | 10230 ft | 262 kts | 91° |
| 2026-04-30 21:12 | 48.52082 | 11.25311 | 10176 ft | 269 kts | 78° |
| 2026-04-30 21:13 | 48.52489 | 11.28068 | 10004 ft | 266 kts | 77° |
| 2026-04-30 21:13 | 48.52900 | 11.30790 | 9582 ft | 266 kts | 77° |
| 2026-04-30 21:13 | 48.53300 | 11.33503 | 9315 ft | 268 kts | 77° |
| 2026-04-30 21:13 | 48.53700 | 11.36256 | 8879 ft | 267 kts | 78° |
| 2026-04-30 21:14 | 48.53960 | 11.39007 | 8414 ft | 266 kts | 91° |
| 2026-04-30 21:14 | 48.53487 | 11.41681 | 7959 ft | 267 kts | 117° |
| 2026-04-30 21:14 | 48.52236 | 11.43751 | 7520 ft | 270 kts | 143° |
| 2026-04-30 21:14 | 48.50474 | 11.44741 | 7134 ft | 274 kts | 170° |
| 2026-04-30 21:15 | 48.48559 | 11.44691 | 6771 ft | 277 kts | 182° |
| 2026-04-30 21:15 | 48.46648 | 11.44357 | 6375 ft | 276 kts | 184° |
| 2026-04-30 21:15 | 48.44749 | 11.43976 | 6049 ft | 274 kts | 184° |
| 2026-04-30 21:15 | 48.42893 | 11.43583 | 5786 ft | 272 kts | 184° |
| 2026-04-30 21:16 | 48.40999 | 11.43163 | 5525 ft | 271 kts | 184° |
| 2026-04-30 21:16 | 48.39179 | 11.42744 | 5277 ft | 264 kts | 184° |
| 2026-04-30 21:16 | 48.37388 | 11.42313 | 5049 ft | 255 kts | 184° |
| 2026-04-30 21:16 | 48.35689 | 11.41881 | 4987 ft | 239 kts | 184° |
| 2026-04-30 21:17 | 48.34075 | 11.41482 | 4984 ft | 234 kts | 180° |
| 2026-04-30 21:17 | 48.32553 | 11.41979 | 4994 ft | 219 kts | 142° |
| 2026-04-30 21:17 | 48.31689 | 11.43686 | 4980 ft | 198 kts | 102° |
| 2026-04-30 21:17 | 48.31683 | 11.45637 | 5004 ft | 178 kts | 82° |
| 2026-04-30 21:18 | 48.31895 | 11.47405 | 4991 ft | 169 kts | 82° |
| 2026-04-30 21:18 | 48.32067 | 11.49121 | 5009 ft | 167 kts | 84° |
| 2026-04-30 21:18 | 48.32194 | 11.50852 | 4847 ft | 165 kts | 85° |
| 2026-04-30 21:18 | 48.32315 | 11.52475 | 4581 ft | 149 kts | 84° |
| 2026-04-30 21:19 | 48.32432 | 11.53943 | 4357 ft | 134 kts | 85° |
| 2026-04-30 21:19 | 48.32535 | 11.55261 | 4184 ft | 120 kts | 86° |
| 2026-04-30 21:19 | 48.32628 | 11.56474 | 4032 ft | 115 kts | 86° |
| 2026-04-30 21:19 | 48.32719 | 11.57676 | 3884 ft | 116 kts | 86° |
| 2026-04-30 21:20 | 48.32812 | 11.58876 | 3716 ft | 115 kts | 85° |
| 2026-04-30 21:20 | 48.32904 | 11.60063 | 3567 ft | 114 kts | 85° |
| 2026-04-30 21:20 | 48.32995 | 11.61249 | 3410 ft | 113 kts | 86° |
| 2026-04-30 21:20 | 48.33086 | 11.62418 | 3251 ft | 112 kts | 86° |
| 2026-04-30 21:21 | 48.33174 | 11.63575 | 3103 ft | 113 kts | 85° |
| 2026-04-30 21:21 | 48.33264 | 11.64738 | 2949 ft | 112 kts | 85° |
| 2026-04-30 21:21 | 48.33443 | 11.67055 | 2625 ft | 113 kts | 86° |
| 2026-04-30 21:22 | 48.33535 | 11.68256 | 2453 ft | 118 kts | 85° |
| 2026-04-30 21:22 | 48.33833 | 11.72063 | 1918 ft | 125 kts | 81° |
| 2026-04-30 21:23 | 48.33935 | 11.73362 | 1738 ft | 127 kts | 79° |
| 2026-04-30 21:23 | 48.34036 | 11.74679 | 1586 ft | 127 kts | 80° |
| 2026-04-30 21:23 | 48.34220 | 11.77094 | 1467 ft | 89 kts | 83° |
| 2026-04-30 21:24 | 48.34268 | 11.77738 | 1467 ft | 37 kts | 83° |
| 2026-04-30 21:24 | 48.34288 | 11.77989 | 1471 ft | 22 kts | 83° |
| 2026-04-30 21:24 | 48.34316 | 11.78219 | 1471 ft | 23 kts | 66° |
| 2026-04-30 21:24 | 48.34412 | 11.78418 | 1466 ft | 25 kts | 52° |
| 2026-04-30 21:25 | 48.34547 | 11.78694 | 1464 ft | 0 kts | 53° |
| 2026-04-30 21:25 | 48.34620 | 11.78734 | 1466 ft | 27 kts | 360° |
| 2026-04-30 21:25 | 48.34719 | 11.78644 | 1461 ft | 11 kts | 272° |
| 2026-04-30 21:26 | 48.34677 | 11.78099 | 1465 ft | 31 kts | 263° |
| 2026-04-30 21:26 | 48.34651 | 11.77759 | 1463 ft | 34 kts | 263° |
| 2026-04-30 21:27 | 48.34593 | 11.77017 | 1461 ft | 30 kts | 264° |
| 2026-04-30 21:27 | 48.34580 | 11.76728 | 1467 ft | 15 kts | 291° |
| 2026-04-30 21:27 | 48.34672 | 11.76662 | 1470 ft | 17 kts | 353° |
| 2026-04-30 21:28 | 48.34721 | 11.76331 | 1465 ft | 24 kts | 263° |
| 2026-04-30 21:28 | 48.34705 | 11.76131 | 1464 ft | 19 kts | 263° |
| 2026-04-30 21:28 | 48.34642 | 11.76048 | 1463 ft | 10 kts | 168° |
| 2026-04-30 21:29 | 48.34622 | 11.76053 | 1467 ft | 0 kts | 173° |